createdAt,value
2022-11-30T00:00:11.368Z,95.72
2022-11-30T00:02:58.984Z,94.98
2022-11-30T00:05:44.650Z,94.48
2022-11-30T00:08:29.390Z,93.95
2022-11-30T00:11:15.253Z,94.46
2022-11-30T00:13:59.493Z,94.37
2022-11-30T00:16:43.698Z,94.33
2022-11-30T00:19:27.864Z,93.95
2022-11-30T00:22:13.297Z,94.02
2022-11-30T00:24:59.627Z,92.99
2022-11-30T00:27:43.779Z,93.14
2022-11-30T00:30:27.767Z,93.38
2022-11-30T00:33:11.859Z,92.61
2022-11-30T00:36:00.180Z,92.69
2022-11-30T00:38:48.576Z,93.30
2022-11-30T00:41:32.672Z,93.45
2022-11-30T00:44:16.614Z,94.11
2022-11-30T00:47:00.619Z,94.19
2022-11-30T00:49:44.548Z,94.80
2022-11-30T00:52:30.665Z,95.33
2022-11-30T00:55:16.008Z,94.89
2022-11-30T00:58:00.004Z,95.36
2022-11-30T01:00:44.128Z,94.88
2022-11-30T01:03:28.414Z,94.53
2022-11-30T01:06:12.402Z,95.01
2022-11-30T01:08:56.359Z,96.50
2022-11-30T01:11:41.512Z,95.87
2022-11-30T01:14:25.556Z,94.93
2022-11-30T01:17:09.387Z,94.52
2022-11-30T01:19:53.095Z,94.77
2022-11-30T01:22:37.098Z,94.95
2022-11-30T01:25:20.833Z,93.94
2022-11-30T01:28:06.254Z,94.95
2022-11-30T01:30:57.916Z,95.17
2022-11-30T01:33:43.230Z,95.02
2022-11-30T01:36:27.757Z,95.28
2022-11-30T01:39:11.619Z,94.92
2022-11-30T01:41:56.177Z,95.50
2022-11-30T01:44:59.987Z,95.74
2022-11-30T01:47:48.320Z,94.12
2022-11-30T01:50:35.579Z,94.81
2022-11-30T01:53:19.480Z,95.08
2022-11-30T01:56:03.336Z,93.44
2022-11-30T01:58:47.204Z,93.55
2022-11-30T02:01:32.803Z,94.46
2022-11-30T02:04:21.749Z,94.34
2022-11-30T02:07:08.905Z,94.88
2022-11-30T02:09:52.701Z,96.16
2022-11-30T02:12:46.168Z,94.18
2022-11-30T02:15:59.108Z,94.26
2022-11-30T02:18:54.524Z,95.06
2022-11-30T02:21:47.069Z,95.50
2022-11-30T02:24:44.015Z,95.34
2022-11-30T02:27:48.019Z,93.89
2022-11-30T02:30:38.992Z,94.49
2022-11-30T02:33:27.201Z,95.18
2022-11-30T02:36:12.889Z,93.89
2022-11-30T02:38:57.586Z,94.88
2022-11-30T02:41:42.312Z,95.51
2022-11-30T02:44:28.023Z,95.14
2022-11-30T02:47:21.560Z,95.00
2022-11-30T02:50:11.298Z,95.20
2022-11-30T02:52:55.807Z,94.30
2022-11-30T02:55:39.628Z,94.82
2022-11-30T02:58:23.721Z,94.74
2022-11-30T03:01:07.531Z,95.93
2022-11-30T03:03:52.878Z,96.02
2022-11-30T03:06:36.572Z,95.34
2022-11-30T03:09:20.290Z,94.64
2022-11-30T03:12:04.171Z,95.36
2022-11-30T03:14:48.129Z,95.11
2022-11-30T03:17:32.183Z,95.25
2022-11-30T03:20:17.520Z,94.97
2022-11-30T03:23:01.894Z,94.74
2022-11-30T03:25:45.586Z,94.76
2022-11-30T03:28:29.647Z,95.68
2022-11-30T03:31:14.210Z,94.60
2022-11-30T03:33:58.081Z,95.31
2022-11-30T03:36:43.294Z,95.36
2022-11-30T03:39:27.220Z,95.35
2022-11-30T03:42:11.165Z,95.71
2022-11-30T03:44:54.777Z,95.22
2022-11-30T03:47:38.957Z,95.27
2022-11-30T03:50:23.076Z,95.31
2022-11-30T03:53:08.170Z,95.83
2022-11-30T03:55:56.684Z,95.68
2022-11-30T03:58:40.587Z,95.04
2022-11-30T04:01:24.888Z,95.17
2022-11-30T04:04:08.937Z,95.35
2022-11-30T04:06:52.706Z,96.38
2022-11-30T04:09:39.421Z,96.22
2022-11-30T04:12:23.155Z,95.69
2022-11-30T04:15:07.772Z,95.28
2022-11-30T04:17:52.757Z,95.27
2022-11-30T04:20:40.367Z,95.51
2022-11-30T04:23:26.048Z,96.17
2022-11-30T04:26:14.869Z,94.99
2022-11-30T04:29:02.143Z,95.90
2022-11-30T04:31:48.310Z,95.17
2022-11-30T04:34:32.274Z,94.94
2022-11-30T04:37:16.263Z,95.91
2022-11-30T04:40:00.207Z,95.04
2022-11-30T04:42:45.849Z,96.39
2022-11-30T04:45:35.037Z,96.22
2022-11-30T04:48:20.570Z,96.45
2022-11-30T04:51:06.218Z,95.27
2022-11-30T04:53:50.306Z,96.42
2022-11-30T04:56:34.295Z,95.77
2022-11-30T04:59:19.933Z,96.02
2022-11-30T05:02:04.051Z,96.47
2022-11-30T05:04:48.361Z,96.95
2022-11-30T05:07:32.434Z,97.52
2022-11-30T05:10:18.236Z,97.32
2022-11-30T05:13:02.586Z,97.52
2022-11-30T05:15:48.214Z,97.38
2022-11-30T05:18:33.706Z,96.89
2022-11-30T05:21:18.189Z,97.05
2022-11-30T05:24:02.426Z,97.28
2022-11-30T05:26:46.528Z,97.84
2022-11-30T05:29:30.608Z,98.29
2022-11-30T05:32:16.215Z,98.27
2022-11-30T05:35:00.133Z,97.76
2022-11-30T05:37:44.172Z,97.68
2022-11-30T05:40:28.999Z,98.38
2022-11-30T05:43:13.260Z,98.07
2022-11-30T05:46:01.057Z,98.35
2022-11-30T05:48:46.571Z,98.00
2022-11-30T05:51:30.642Z,99.17
2022-11-30T05:54:14.710Z,98.43
2022-11-30T05:56:58.688Z,98.24
2022-11-30T05:59:42.716Z,98.16
2022-11-30T06:02:28.277Z,99.12
2022-11-30T06:05:14.480Z,98.61
2022-11-30T06:08:00.993Z,99.28
2022-11-30T06:10:45.073Z,97.51
2022-11-30T06:13:29.113Z,98.82
2022-11-30T06:16:13.036Z,99.64
2022-11-30T06:18:56.844Z,98.93
2022-11-30T06:21:42.067Z,98.94
2022-11-30T06:24:25.887Z,99.01
2022-11-30T06:27:09.676Z,99.34
2022-11-30T06:29:53.350Z,99.36
2022-11-30T06:32:37.097Z,99.98
2022-11-30T06:35:20.821Z,99.60
2022-11-30T06:38:06.048Z,99.62
2022-11-30T06:40:50.158Z,99.77
2022-11-30T06:43:35.727Z,100.00
2022-11-30T06:46:19.874Z,100.00
2022-11-30T06:49:04.023Z,100.00
2022-11-30T06:51:48.229Z,100.00
2022-11-30T06:54:33.609Z,100.00
2022-11-30T06:57:17.707Z,100.00
2022-11-30T07:00:01.804Z,99.78
2022-11-30T07:02:47.411Z,100.00
2022-11-30T07:05:34.089Z,99.52
2022-11-30T07:08:18.825Z,100.00
2022-11-30T07:11:04.484Z,100.00
2022-11-30T07:13:48.225Z,100.00
2022-11-30T07:16:32.043Z,99.96
2022-11-30T07:19:16.029Z,99.17
2022-11-30T07:21:59.983Z,99.12
2022-11-30T07:25:01.572Z,99.55
2022-11-30T07:27:48.448Z,99.87
2022-11-30T07:30:32.950Z,99.39
2022-11-30T07:33:16.681Z,99.62
2022-11-30T07:36:00.423Z,99.93
2022-11-30T07:38:44.456Z,100.00
2022-11-30T07:41:28.410Z,99.71
2022-11-30T07:44:13.659Z,99.04
2022-11-30T07:46:57.503Z,98.21
2022-11-30T07:49:41.186Z,99.27
2022-11-30T07:52:24.962Z,99.04
2022-11-30T07:55:09.872Z,99.24
2022-11-30T07:57:54.484Z,98.55
2022-11-30T08:00:40.444Z,98.40
2022-11-30T08:03:24.874Z,98.16
2022-11-30T08:06:11.644Z,97.53
2022-11-30T08:08:58.585Z,98.52
2022-11-30T08:11:42.401Z,98.69
2022-11-30T08:14:26.231Z,98.75
2022-11-30T08:17:11.826Z,98.94
2022-11-30T08:19:55.758Z,99.17
2022-11-30T08:22:39.866Z,99.28
2022-11-30T08:25:23.767Z,99.08
2022-11-30T08:28:07.567Z,99.40
2022-11-30T08:30:51.555Z,98.27
2022-11-30T08:33:37.853Z,98.02
2022-11-30T08:36:23.164Z,97.30
2022-11-30T08:39:08.333Z,97.70
2022-11-30T08:41:53.135Z,97.45
2022-11-30T08:44:37.172Z,96.93
2022-11-30T08:47:21.342Z,98.06
2022-11-30T08:50:07.859Z,98.80
2022-11-30T08:52:51.976Z,99.64
2022-11-30T08:55:35.977Z,99.01
2022-11-30T08:58:19.961Z,98.66
2022-11-30T09:01:08.337Z,98.16
2022-11-30T09:03:55.582Z,97.99
2022-11-30T09:06:40.984Z,98.69
2022-11-30T09:09:24.952Z,98.93
2022-11-30T09:12:09.424Z,100.00
2022-11-30T09:14:58.024Z,100.00
2022-11-30T09:17:42.413Z,100.00
2022-11-30T09:20:26.327Z,99.59
2022-11-30T09:23:11.796Z,100.00
2022-11-30T09:25:57.716Z,100.00
2022-11-30T09:28:42.194Z,99.83
2022-11-30T09:31:27.433Z,99.40
2022-11-30T09:34:13.297Z,99.33
2022-11-30T09:36:57.279Z,98.26
2022-11-30T09:39:42.770Z,99.37
2022-11-30T09:42:41.499Z,99.39
2022-11-30T09:45:30.174Z,98.47
2022-11-30T09:48:31.392Z,99.02
2022-11-30T09:51:21.542Z,99.72
2022-11-30T09:54:08.959Z,99.68
2022-11-30T09:56:54.259Z,99.41
2022-11-30T09:59:40.041Z,99.10
2022-11-30T10:02:29.440Z,99.11
2022-11-30T10:05:15.512Z,98.88
2022-11-30T10:08:17.751Z,99.34
2022-11-30T10:11:20.183Z,99.61
2022-11-30T10:14:25.176Z,99.66
2022-11-30T10:17:22.260Z,98.57
2022-11-30T10:20:19.995Z,98.89
2022-11-30T10:23:18.617Z,98.61
2022-11-30T10:26:09.855Z,99.15
2022-11-30T10:28:55.439Z,99.18
2022-11-30T10:31:41.912Z,99.18
2022-11-30T10:34:30.014Z,97.67
2022-11-30T10:37:18.651Z,97.89
2022-11-30T10:40:06.748Z,97.42
2022-11-30T10:42:58.367Z,96.86
2022-11-30T10:45:47.791Z,97.77
2022-11-30T10:48:41.819Z,97.40
2022-11-30T10:51:27.849Z,97.07
2022-11-30T10:54:16.607Z,96.71
2022-11-30T10:57:01.873Z,97.71
2022-11-30T10:59:49.759Z,97.71
2022-11-30T11:02:40.866Z,95.74
2022-11-30T11:05:28.069Z,95.86
2022-11-30T11:08:20.712Z,96.93
2022-11-30T11:11:06.307Z,95.99
2022-11-30T11:13:50.397Z,96.44
2022-11-30T11:16:51.148Z,96.44
2022-11-30T11:19:38.208Z,96.43
2022-11-30T11:22:25.268Z,96.48
2022-11-30T11:25:13.209Z,97.51
2022-11-30T11:28:04.136Z,97.32
2022-11-30T11:30:48.893Z,97.39
2022-11-30T11:33:32.964Z,98.57
2022-11-30T11:36:25.696Z,97.07
2022-11-30T11:39:26.789Z,98.23
2022-11-30T11:42:21.992Z,96.69
2022-11-30T11:45:16.448Z,96.16
2022-11-30T11:48:02.373Z,95.06
2022-11-30T11:51:06.623Z,96.54
2022-11-30T11:53:56.207Z,96.62
2022-11-30T11:56:41.425Z,97.81
2022-11-30T11:59:39.080Z,97.92
2022-11-30T12:02:33.769Z,97.36
2022-11-30T12:05:24.468Z,97.53
2022-11-30T12:08:14.678Z,97.95
2022-11-30T12:11:03.367Z,97.32
2022-11-30T12:13:48.697Z,97.99
2022-11-30T12:16:39.088Z,97.36
2022-11-30T12:19:26.979Z,97.68
2022-11-30T12:22:29.268Z,97.13
2022-11-30T12:25:22.878Z,98.03
2022-11-30T12:28:20.922Z,97.17
2022-11-30T12:31:14.009Z,96.82
2022-11-30T12:34:13.714Z,97.28
2022-11-30T12:37:10.650Z,98.03
2022-11-30T12:40:03.338Z,97.26
2022-11-30T12:42:54.537Z,98.06
2022-11-30T12:45:42.216Z,98.34
2022-11-30T12:48:39.436Z,98.15
2022-11-30T12:51:30.266Z,98.08
2022-11-30T12:54:23.927Z,97.66
2022-11-30T12:57:17.045Z,97.80
2022-11-30T13:00:09.537Z,98.22
2022-11-30T13:03:07.415Z,98.58
2022-11-30T13:05:59.114Z,98.91
2022-11-30T13:08:57.184Z,99.36
2022-11-30T13:11:43.094Z,98.93
2022-11-30T13:14:29.384Z,99.19
2022-11-30T13:17:18.942Z,99.23
2022-11-30T13:20:08.675Z,99.68
2022-11-30T13:23:00.852Z,99.46
2022-11-30T13:29:05.228Z,99.22
2022-11-30T13:31:57.001Z,98.72
2022-11-30T13:34:40.913Z,99.28
2022-11-30T13:37:28.746Z,100.00
2022-11-30T13:40:22.393Z,100.00
2022-11-30T13:43:06.457Z,100.00
2022-11-30T13:45:50.963Z,100.00
2022-11-30T13:48:39.410Z,100.00
2022-11-30T13:51:37.076Z,100.00
2022-11-30T13:54:40.589Z,100.00
2022-11-30T13:58:01.728Z,100.00
2022-11-30T14:01:01.179Z,100.00
2022-11-30T14:06:50.118Z,100.00
2022-11-30T14:10:00.928Z,100.00
2022-11-30T14:13:00.064Z,100.00
2022-11-30T14:15:57.013Z,100.00
2022-11-30T14:18:43.670Z,100.00
2022-11-30T14:21:33.147Z,100.00
2022-11-30T14:24:22.188Z,100.00
2022-11-30T14:27:07.113Z,100.00
2022-11-30T14:29:53.936Z,100.00
2022-11-30T14:32:43.908Z,100.00
2022-11-30T14:35:31.542Z,100.00
2022-11-30T14:38:20.996Z,100.00
2022-11-30T14:41:04.986Z,100.00
2022-11-30T14:44:02.946Z,100.00
2022-11-30T14:46:46.903Z,100.00
2022-11-30T14:49:32.115Z,100.00
2022-11-30T14:52:22.501Z,100.00
2022-11-30T14:55:18.657Z,100.00
2022-11-30T14:58:14.171Z,100.00
2022-11-30T15:00:59.542Z,100.00
2022-11-30T15:03:46.018Z,100.00
2022-11-30T15:06:34.499Z,100.00
2022-11-30T15:09:22.131Z,100.00
2022-11-30T15:12:06.260Z,100.00
2022-11-30T15:15:17.665Z,100.00
2022-11-30T15:18:15.361Z,100.00
2022-11-30T15:21:03.759Z,100.00
2022-11-30T15:23:51.585Z,100.00
2022-11-30T15:26:39.352Z,100.00
2022-11-30T15:29:28.307Z,100.00
2022-11-30T15:32:18.123Z,100.00
2022-11-30T15:35:02.336Z,100.00
2022-11-30T15:37:48.124Z,100.00
2022-11-30T15:40:35.798Z,100.00
2022-11-30T15:43:24.076Z,100.00
2022-11-30T15:46:09.021Z,100.00
2022-11-30T15:49:06.387Z,100.00
2022-11-30T15:52:02.350Z,100.00
2022-11-30T15:54:52.798Z,100.00
2022-11-30T15:57:59.945Z,100.00
2022-11-30T16:00:44.085Z,100.00
2022-11-30T16:03:28.258Z,100.00
2022-11-30T16:06:20.685Z,100.00
2022-11-30T16:09:19.691Z,100.00
2022-11-30T16:12:03.858Z,100.00
2022-11-30T16:14:49.468Z,100.00
2022-11-30T16:17:34.410Z,100.00
2022-11-30T16:20:20.994Z,100.00
2022-11-30T16:23:06.128Z,100.00
2022-11-30T16:25:51.515Z,100.00
2022-11-30T16:28:35.533Z,100.00
2022-11-30T16:31:22.001Z,100.00
2022-11-30T16:34:08.154Z,100.00
2022-11-30T16:36:52.263Z,100.00
2022-11-30T16:39:36.171Z,100.00
2022-11-30T16:42:20.297Z,100.00
2022-11-30T16:45:04.526Z,100.00
2022-11-30T16:47:50.276Z,100.00
2022-11-30T16:50:35.185Z,100.00
2022-11-30T16:53:19.274Z,100.00
2022-11-30T16:56:03.372Z,100.00
2022-11-30T16:58:47.666Z,100.00
2022-11-30T17:01:36.522Z,100.00
2022-11-30T17:04:24.074Z,100.00
2022-11-30T17:07:07.853Z,100.00
2022-11-30T17:09:51.808Z,100.00
2022-11-30T17:12:36.324Z,100.00
2022-11-30T17:15:22.896Z,100.00
2022-11-30T17:18:06.846Z,100.00
2022-11-30T17:20:52.202Z,100.00
2022-11-30T17:23:36.040Z,100.00
2022-11-30T17:26:19.904Z,100.00
2022-11-30T17:29:03.803Z,100.00
2022-11-30T17:31:47.626Z,100.00
2022-11-30T17:34:31.605Z,100.00
2022-11-30T17:37:17.047Z,100.00
2022-11-30T17:40:01.183Z,100.00
2022-11-30T17:42:45.556Z,100.00
2022-11-30T17:45:29.571Z,100.00
2022-11-30T17:48:14.960Z,100.00
2022-11-30T17:50:59.037Z,100.00
2022-11-30T17:53:44.410Z,100.00
2022-11-30T17:56:28.592Z,100.00
2022-11-30T17:59:12.492Z,100.00
2022-11-30T18:01:56.388Z,100.00
2022-11-30T18:04:40.287Z,100.00
2022-11-30T18:07:24.125Z,100.00
2022-11-30T18:10:10.945Z,100.00
2022-11-30T18:12:57.535Z,100.00
2022-11-30T18:15:41.345Z,100.00
2022-11-30T18:18:25.145Z,100.00
2022-11-30T18:21:10.384Z,100.00
2022-11-30T18:23:54.699Z,100.00
2022-11-30T18:26:40.634Z,100.00
2022-11-30T18:29:24.478Z,100.00
2022-11-30T18:32:09.803Z,100.00
2022-11-30T18:34:54.948Z,100.00
2022-11-30T18:37:39.213Z,100.00
2022-11-30T18:40:23.011Z,100.00
2022-11-30T18:43:08.878Z,100.00
2022-11-30T18:45:52.813Z,100.00
2022-11-30T18:48:37.885Z,100.00
2022-11-30T18:51:23.695Z,100.00
2022-11-30T18:54:09.701Z,100.00
2022-11-30T18:56:53.672Z,100.00
2022-11-30T18:59:38.995Z,100.00
2022-11-30T19:02:22.866Z,100.00
2022-11-30T19:05:13.205Z,100.00
2022-11-30T19:07:57.270Z,100.00
2022-11-30T19:10:41.749Z,100.00
2022-11-30T19:13:25.863Z,100.00
2022-11-30T19:16:13.734Z,100.00
2022-11-30T19:19:00.687Z,100.00
2022-11-30T19:21:48.012Z,100.00
2022-11-30T19:24:32.220Z,100.00
2022-11-30T19:27:16.092Z,100.00
2022-11-30T19:30:00.232Z,100.00
2022-11-30T19:32:45.497Z,100.00
2022-11-30T19:35:29.338Z,100.00
2022-11-30T19:38:13.247Z,100.00
2022-11-30T19:40:57.329Z,100.00
2022-11-30T19:43:41.868Z,100.00
2022-11-30T19:46:27.065Z,100.00
2022-11-30T19:49:12.727Z,100.00
2022-11-30T19:51:56.692Z,100.00
2022-11-30T19:54:40.759Z,100.00
2022-11-30T19:57:24.677Z,100.00
2022-11-30T20:00:09.841Z,100.00
2022-11-30T20:02:56.965Z,100.00
2022-11-30T20:05:48.789Z,100.00
2022-11-30T20:08:32.767Z,100.00
2022-11-30T20:11:17.711Z,100.00
2022-11-30T20:14:02.068Z,100.00
2022-11-30T20:16:46.166Z,100.00
2022-11-30T20:19:30.522Z,100.00
2022-11-30T20:22:16.153Z,100.00
2022-11-30T20:25:00.182Z,100.00
2022-11-30T20:27:44.387Z,100.00
2022-11-30T20:30:28.730Z,100.00
2022-11-30T20:33:12.836Z,100.00
2022-11-30T20:35:57.939Z,100.00
2022-11-30T20:38:43.913Z,100.00
2022-11-30T20:41:28.312Z,100.00
2022-11-30T20:44:14.977Z,100.00
2022-11-30T20:46:59.030Z,100.00
2022-11-30T20:49:42.751Z,100.00
2022-11-30T20:52:27.336Z,100.00
2022-11-30T20:55:12.766Z,100.00
2022-11-30T20:57:56.874Z,100.00
2022-11-30T21:00:40.801Z,100.00
2022-11-30T21:03:24.550Z,100.00
2022-11-30T21:06:08.636Z,100.00
2022-11-30T21:08:52.520Z,100.00
2022-11-30T21:11:37.761Z,100.00
2022-11-30T21:14:21.792Z,100.00
2022-11-30T21:17:05.624Z,100.00
2022-11-30T21:19:49.662Z,100.00
2022-11-30T21:22:33.710Z,100.00
2022-11-30T21:25:18.112Z,100.00
2022-11-30T21:28:03.407Z,100.00
2022-11-30T21:30:47.170Z,100.00
2022-11-30T21:33:30.889Z,100.00
2022-11-30T21:36:16.381Z,100.00
2022-11-30T21:39:05.950Z,100.00
2022-11-30T21:41:50.658Z,100.00
2022-11-30T21:44:35.920Z,100.00
2022-11-30T21:47:19.883Z,100.00
2022-11-30T21:50:04.349Z,100.00
2022-11-30T21:52:48.159Z,100.00
2022-11-30T21:55:31.894Z,100.00
2022-11-30T21:58:15.706Z,100.00
2022-11-30T22:01:02.513Z,100.00
2022-11-30T22:03:46.647Z,100.00
2022-11-30T22:06:32.420Z,100.00
2022-11-30T22:09:18.083Z,100.00
2022-11-30T22:12:01.880Z,100.00
2022-11-30T22:14:45.728Z,100.00
2022-11-30T22:17:30.865Z,100.00
2022-11-30T22:20:14.638Z,100.00
2022-11-30T22:22:58.397Z,100.00
2022-11-30T22:25:42.447Z,100.00
2022-11-30T22:28:26.243Z,100.00
2022-11-30T22:31:11.976Z,100.00
2022-11-30T22:33:57.877Z,100.00
2022-11-30T22:36:43.736Z,100.00
2022-11-30T22:39:27.414Z,100.00
2022-11-30T22:42:11.102Z,100.00
2022-11-30T22:44:54.934Z,100.00
2022-11-30T22:47:38.728Z,100.00
2022-11-30T22:50:23.986Z,100.00
2022-11-30T22:53:07.949Z,100.00
2022-11-30T22:55:51.975Z,100.00
2022-11-30T22:58:36.313Z,100.00
2022-11-30T23:01:22.029Z,100.00
2022-11-30T23:04:09.310Z,100.00
2022-11-30T23:06:54.801Z,100.00
2022-11-30T23:09:38.546Z,100.00
2022-11-30T23:12:43.296Z,100.00
2022-11-30T23:15:25.942Z,100.00
2022-11-30T23:18:10.014Z,100.00
2022-11-30T23:20:53.741Z,100.00
2022-11-30T23:23:39.025Z,100.00
2022-11-30T23:26:25.270Z,100.00
2022-11-30T23:29:12.443Z,100.00
2022-11-30T23:31:56.228Z,100.00
2022-11-30T23:34:40.258Z,100.00
2022-11-30T23:37:24.060Z,100.00
2022-11-30T23:40:10.366Z,100.00
2022-11-30T23:42:54.497Z,100.00
2022-11-30T23:45:38.311Z,100.00
2022-11-30T23:48:22.035Z,100.00
2022-11-30T23:51:06.209Z,100.00
2022-11-30T23:53:49.948Z,100.00
2022-11-30T23:56:35.225Z,100.00
2022-11-30T23:59:19.178Z,100.00
